Aviation Digital Data Service (ADDS)

Output produced by METARs form (0426 UTC 26 May 2018)
found at http://www.aviationweather.gov/adds/metars/
 
KVCT 252340Z 2600/2624 16008KT P6SM VCSH SCT050 
     TEMPO 2601/2603 6SM -SHRA 
     FM260300 15005KT P6SM FEW025 
     FM260800 00000KT 1/2SM FG VV006 
     FM261300 VRB03KT 3SM BR BKN005 BKN015 
     FM261430 17007KT P6SM SCT030
       
KVEL 252320Z 2600/2624 21015KT P6SM SKC 
     FM260200 28005KT P6SM SKC 
     FM261600 18005KT P6SM SKC 
     FM261900 21010G18KT P6SM FEW250
       
KVGT 252324Z 2600/2624 23018G27KT P6SM SKC 
     FM260700 21011KT P6SM SKC 
     FM261300 34013G20KT P6SM FEW120 
     FM261700 VRB06KT P6SM FEW120
       
KVIS 252325Z 2600/2624 34007KT P6SM BKN040 OVC050 
     FM260200 32007KT P6SM SCT030 OVC070 
     FM261800 33007KT P6SM BKN050
       
KVLD 252321Z 2600/2624 VRB04KT P6SM SCT050 
     FM260900 00000KT 5SM BR BKN007 
     FM261400 VRB04KT P6SM SCT040 
     FM261800 17006KT P6SM VCTS SCT050CB
       
KVNY 260309Z 2603/2624 25008KT P6SM SCT045 
     FM260400 VRB04KT P6SM BKN035 
     FM260800 13004KT P6SM BKN020 OVC035 
     FM261500 14008KT P6SM SCT025 BKN040 
     FM261900 17010KT P6SM SCT040
       
TAF KVPS 260100Z 2601/2707 18010KT 9999 VCSH SCT025 SCT050 BKN120 BKN200 QNH2992INS 
     TEMPO 2601/2602 20010G18KT 4800 -TSRA SCT015 BKN020CB OVC120 
     BECMG 2602/2603 30009KT 9999 NSW FEW035 SCT250 QNH2992INS 
     BECMG 2616/2617 18010KT 9999 VCSH SCT025 SCT050 BKN120 BKN200 QNH2987INS 
     TEMPO 2617/2623 20010G18KT 4800 -TSRA SCT015 BKN020CB OVC120 
     BECMG 2701/2702 30009KT 9999 NSW FEW035 SCT250 QNH2985INS TX29/2618Z TN20/2610Z
       
KVQQ 252340Z 2600/2624 14007KT P6SM FEW035 BKN250 
     FM260500 VRB02KT P6SM BKN250 
     FM261400 17005KT P6SM SCT030 BKN250 
     FM261600 14011KT P6SM VCSH SCT035 BKN250
       
KVRB 252335Z 2600/2624 18006KT P6SM VCSH SCT025 SCT040 OVC250 
     FM260200 14005KT P6SM FEW025 SCT120 OVC250 
     FM261400 12012G19KT P6SM -RA VCSH SCT020 BKN040 OVC250
       
KVTN 252320Z 2600/2624 01007KT P6SM SKC 
     FM260400 VRB04KT P6SM SKC 
     FM261600 17008KT P6SM SKC 
     FM262100 17012KT P6SM SKC